Terminal Aerodrome Forecast
Issued by NWS

Home | Current Version | Previous Version | Text Only | Print | Product List | Glossary On
Versions: 1 2 3 4 5 6 7 8 9 10 11 12 13 14 15 16 17 18 19 20 21 22
000
FTUS43 KMKX 090525
TAFUES
TAF
KUES 090525Z 0906/1006 29011KT P6SM BKN050
     FM090900 29009KT P6SM SCT050
     FM091200 29008KT P6SM SCT250
     FM100300 28006KT P6SM BKN110=

USA.gov is the U.S. government's official web portal to all federal, state and local government web resources and services.